sensor_id;sensor_type;location;lat;lon;timestamp;temperature;humidity
20839;DHT22;10580;51.092;6.828;2023-02-17T00:01:22;11.10;99.90
20839;DHT22;10580;51.092;6.828;2023-02-17T00:03:48;11.10;99.90
20839;DHT22;10580;51.092;6.828;2023-02-17T00:06:16;11.10;99.90
20839;DHT22;10580;51.092;6.828;2023-02-17T00:08:42;11.10;99.90
20839;DHT22;10580;51.092;6.828;2023-02-17T00:11:07;11.10;99.90
20839;DHT22;10580;51.092;6.828;2023-02-17T00:13:33;11.10;99.90
20839;DHT22;10580;51.092;6.828;2023-02-17T00:15:59;11.10;99.90
20839;DHT22;10580;51.092;6.828;2023-02-17T00:18:38;11.10;99.90
20839;DHT22;10580;51.092;6.828;2023-02-17T00:21:17;11.20;99.90
20839;DHT22;10580;51.092;6.828;2023-02-17T00:23:44;11.20;99.90
20839;DHT22;10580;51.092;6.828;2023-02-17T00:26:10;11.20;99.90
20839;DHT22;10580;51.092;6.828;2023-02-17T00:28:36;11.20;99.90
20839;DHT22;10580;51.092;6.828;2023-02-17T00:31:10;11.20;99.90
20839;DHT22;10580;51.092;6.828;2023-02-17T00:33:37;11.20;99.90
20839;DHT22;10580;51.092;6.828;2023-02-17T00:36:05;11.20;99.90
20839;DHT22;10580;51.092;6.828;2023-02-17T00:38:31;11.20;99.90
20839;DHT22;10580;51.092;6.828;2023-02-17T00:40:56;11.20;99.90
20839;DHT22;10580;51.092;6.828;2023-02-17T00:43:22;11.20;99.90
20839;DHT22;10580;51.092;6.828;2023-02-17T00:45:47;11.20;99.90
20839;DHT22;10580;51.092;6.828;2023-02-17T00:48:13;11.20;99.90
20839;DHT22;10580;51.092;6.828;2023-02-17T00:50:38;11.20;99.90
20839;DHT22;10580;51.092;6.828;2023-02-17T00:53:04;11.20;99.90
20839;DHT22;10580;51.092;6.828;2023-02-17T00:55:29;11.20;99.90
20839;DHT22;10580;51.092;6.828;2023-02-17T00:57:55;11.20;99.90
20839;DHT22;10580;51.092;6.828;2023-02-17T01:00:21;11.20;99.90
20839;DHT22;10580;51.092;6.828;2023-02-17T01:02:46;11.10;99.90
20839;DHT22;10580;51.092;6.828;2023-02-17T01:05:12;11.20;99.90
20839;DHT22;10580;51.092;6.828;2023-02-17T01:07:37;11.10;99.90
20839;DHT22;10580;51.092;6.828;2023-02-17T01:10:04;11.10;99.90
20839;DHT22;10580;51.092;6.828;2023-02-17T01:12:30;11.10;99.90
20839;DHT22;10580;51.092;6.828;2023-02-17T01:14:55;11.10;99.90
20839;DHT22;10580;51.092;6.828;2023-02-17T01:17:21;11.10;99.90
20839;DHT22;10580;51.092;6.828;2023-02-17T01:19:49;11.10;99.90
20839;DHT22;10580;51.092;6.828;2023-02-17T01:22:14;11.10;99.90
20839;DHT22;10580;51.092;6.828;2023-02-17T01:24:40;11.10;99.90
20839;DHT22;10580;51.092;6.828;2023-02-17T01:27:05;11.10;99.90
20839;DHT22;10580;51.092;6.828;2023-02-17T01:29:31;11.20;99.90
20839;DHT22;10580;51.092;6.828;2023-02-17T01:31:57;11.20;99.90
20839;DHT22;10580;51.092;6.828;2023-02-17T01:34:22;11.20;99.90
20839;DHT22;10580;51.092;6.828;2023-02-17T01:36:48;11.20;99.90
20839;DHT22;10580;51.092;6.828;2023-02-17T01:39:15;11.10;99.90
20839;DHT22;10580;51.092;6.828;2023-02-17T01:41:40;11.10;99.90
20839;DHT22;10580;51.092;6.828;2023-02-17T01:44:11;11.10;99.90
20839;DHT22;10580;51.092;6.828;2023-02-17T01:46:39;11.10;99.90
20839;DHT22;10580;51.092;6.828;2023-02-17T01:49:20;11.10;99.90
20839;DHT22;10580;51.092;6.828;2023-02-17T01:54:46;11.10;99.90
20839;DHT22;10580;51.092;6.828;2023-02-17T01:57:16;11.20;99.90
20839;DHT22;10580;51.092;6.828;2023-02-17T01:59:43;11.10;99.90
20839;DHT22;10580;51.092;6.828;2023-02-17T02:02:10;11.10;99.90
20839;DHT22;10580;51.092;6.828;2023-02-17T02:04:38;11.10;99.90
20839;DHT22;10580;51.092;6.828;2023-02-17T02:07:09;11.10;99.90
20839;DHT22;10580;51.092;6.828;2023-02-17T02:09:38;11.10;99.90
20839;DHT22;10580;51.092;6.828;2023-02-17T02:12:23;11.10;99.90
20839;DHT22;10580;51.092;6.828;2023-02-17T02:14:49;11.10;99.90
20839;DHT22;10580;51.092;6.828;2023-02-17T02:17:34;11.10;99.90
20839;DHT22;10580;51.092;6.828;2023-02-17T02:26:07;11.10;99.90
20839;DHT22;10580;51.092;6.828;2023-02-17T02:28:41;11.10;99.90
20839;DHT22;10580;51.092;6.828;2023-02-17T02:34:11;11.10;99.90
20839;DHT22;10580;51.092;6.828;2023-02-17T02:36:48;11.10;99.90
20839;DHT22;10580;51.092;6.828;2023-02-17T02:39:17;11.10;99.90
20839;DHT22;10580;51.092;6.828;2023-02-17T02:41:53;11.10;99.90
20839;DHT22;10580;51.092;6.828;2023-02-17T02:44:21;11.10;99.90
20839;DHT22;10580;51.092;6.828;2023-02-17T02:47:37;11.10;99.90
20839;DHT22;10580;51.092;6.828;2023-02-17T02:49:52;11.10;99.90
20839;DHT22;10580;51.092;6.828;2023-02-17T02:55:23;11.10;99.90
20839;DHT22;10580;51.092;6.828;2023-02-17T02:58:02;11.10;99.90
20839;DHT22;10580;51.092;6.828;2023-02-17T03:00:53;11.10;99.90
20839;DHT22;10580;51.092;6.828;2023-02-17T03:08:43;11.10;99.90
20839;DHT22;10580;51.092;6.828;2023-02-17T03:11:11;11.10;99.90
20839;DHT22;10580;51.092;6.828;2023-02-17T03:13:37;11.10;99.90
20839;DHT22;10580;51.092;6.828;2023-02-17T03:16:05;11.10;99.90
20839;DHT22;10580;51.092;6.828;2023-02-17T03:18:32;11.10;99.90
20839;DHT22;10580;51.092;6.828;2023-02-17T03:21:03;11.10;99.90
20839;DHT22;10580;51.092;6.828;2023-02-17T03:23:30;11.10;99.90
20839;DHT22;10580;51.092;6.828;2023-02-17T03:25:55;11.10;99.90
20839;DHT22;10580;51.092;6.828;2023-02-17T03:28:21;11.10;99.90
20839;DHT22;10580;51.092;6.828;2023-02-17T03:30:46;11.10;99.90
20839;DHT22;10580;51.092;6.828;2023-02-17T03:33:12;11.00;99.90
20839;DHT22;10580;51.092;6.828;2023-02-17T03:35:38;11.00;99.90
20839;DHT22;10580;51.092;6.828;2023-02-17T03:38:03;11.00;99.90
20839;DHT22;10580;51.092;6.828;2023-02-17T03:40:29;11.10;99.90
20839;DHT22;10580;51.092;6.828;2023-02-17T03:42:55;11.10;99.90
20839;DHT22;10580;51.092;6.828;2023-02-17T03:45:22;11.10;99.90
20839;DHT22;10580;51.092;6.828;2023-02-17T03:47:47;11.10;99.90
20839;DHT22;10580;51.092;6.828;2023-02-17T03:50:13;11.10;99.90
20839;DHT22;10580;51.092;6.828;2023-02-17T03:52:38;11.10;99.90
20839;DHT22;10580;51.092;6.828;2023-02-17T03:55:04;11.10;99.90
20839;DHT22;10580;51.092;6.828;2023-02-17T03:57:30;11.10;99.90
20839;DHT22;10580;51.092;6.828;2023-02-17T03:59:56;11.10;99.90
20839;DHT22;10580;51.092;6.828;2023-02-17T04:02:22;11.10;99.90
20839;DHT22;10580;51.092;6.828;2023-02-17T04:04:48;11.10;99.90
20839;DHT22;10580;51.092;6.828;2023-02-17T04:07:14;11.10;99.90
20839;DHT22;10580;51.092;6.828;2023-02-17T04:09:39;11.10;99.90
20839;DHT22;10580;51.092;6.828;2023-02-17T04:12:05;11.10;99.90
20839;DHT22;10580;51.092;6.828;2023-02-17T04:14:30;11.10;99.90
20839;DHT22;10580;51.092;6.828;2023-02-17T04:16:56;11.10;99.90
20839;DHT22;10580;51.092;6.828;2023-02-17T04:19:21;11.10;99.90
20839;DHT22;10580;51.092;6.828;2023-02-17T04:21:47;11.10;99.90
20839;DHT22;10580;51.092;6.828;2023-02-17T04:24:12;11.10;99.90
20839;DHT22;10580;51.092;6.828;2023-02-17T04:26:38;11.10;99.90
20839;DHT22;10580;51.092;6.828;2023-02-17T04:29:04;11.10;99.90
20839;DHT22;10580;51.092;6.828;2023-02-17T04:31:30;11.10;99.90
20839;DHT22;10580;51.092;6.828;2023-02-17T04:33:55;11.10;99.90
20839;DHT22;10580;51.092;6.828;2023-02-17T04:36:21;11.10;99.90
20839;DHT22;10580;51.092;6.828;2023-02-17T04:38:46;11.20;99.90
20839;DHT22;10580;51.092;6.828;2023-02-17T04:41:12;11.20;99.90
20839;DHT22;10580;51.092;6.828;2023-02-17T04:43:38;11.20;99.90
20839;DHT22;10580;51.092;6.828;2023-02-17T04:46:03;11.20;99.90
20839;DHT22;10580;51.092;6.828;2023-02-17T04:48:29;11.20;99.90
20839;DHT22;10580;51.092;6.828;2023-02-17T04:50:54;11.20;99.90
20839;DHT22;10580;51.092;6.828;2023-02-17T04:53:20;11.20;99.90
20839;DHT22;10580;51.092;6.828;2023-02-17T04:55:50;11.20;99.90
20839;DHT22;10580;51.092;6.828;2023-02-17T04:58:17;11.20;99.90
20839;DHT22;10580;51.092;6.828;2023-02-17T05:00:43;11.20;99.90
20839;DHT22;10580;51.092;6.828;2023-02-17T05:03:08;11.20;99.90
20839;DHT22;10580;51.092;6.828;2023-02-17T05:05:34;11.20;99.90
20839;DHT22;10580;51.092;6.828;2023-02-17T05:08:00;11.30;99.90
20839;DHT22;10580;51.092;6.828;2023-02-17T05:10:25;11.30;99.90
20839;DHT22;10580;51.092;6.828;2023-02-17T05:12:51;11.30;99.90
20839;DHT22;10580;51.092;6.828;2023-02-17T05:15:17;11.30;99.90
20839;DHT22;10580;51.092;6.828;2023-02-17T05:17:42;11.30;99.90
20839;DHT22;10580;51.092;6.828;2023-02-17T05:20:08;11.30;99.90
20839;DHT22;10580;51.092;6.828;2023-02-17T05:22:34;11.30;99.90
20839;DHT22;10580;51.092;6.828;2023-02-17T05:25:00;11.30;99.90
20839;DHT22;10580;51.092;6.828;2023-02-17T05:27:25;11.30;99.90
20839;DHT22;10580;51.092;6.828;2023-02-17T05:29:51;11.30;99.90
20839;DHT22;10580;51.092;6.828;2023-02-17T05:32:17;11.30;99.90
20839;DHT22;10580;51.092;6.828;2023-02-17T05:34:42;11.30;99.90
20839;DHT22;10580;51.092;6.828;2023-02-17T05:37:08;11.30;99.90
20839;DHT22;10580;51.092;6.828;2023-02-17T05:39:34;11.30;99.90
20839;DHT22;10580;51.092;6.828;2023-02-17T05:41:59;11.30;99.90
20839;DHT22;10580;51.092;6.828;2023-02-17T05:44:25;11.30;99.90
20839;DHT22;10580;51.092;6.828;2023-02-17T05:46:50;11.30;99.90
20839;DHT22;10580;51.092;6.828;2023-02-17T05:49:16;11.30;99.90
20839;DHT22;10580;51.092;6.828;2023-02-17T05:51:41;11.30;99.90
20839;DHT22;10580;51.092;6.828;2023-02-17T05:54:07;11.30;99.90
20839;DHT22;10580;51.092;6.828;2023-02-17T05:56:32;11.30;99.90
20839;DHT22;10580;51.092;6.828;2023-02-17T05:58:58;11.30;99.90
20839;DHT22;10580;51.092;6.828;2023-02-17T06:01:25;11.30;99.90
20839;DHT22;10580;51.092;6.828;2023-02-17T06:03:51;11.40;99.90
20839;DHT22;10580;51.092;6.828;2023-02-17T06:06:16;11.40;99.90
20839;DHT22;10580;51.092;6.828;2023-02-17T06:08:42;11.40;99.90
20839;DHT22;10580;51.092;6.828;2023-02-17T06:11:07;11.40;99.90
20839;DHT22;10580;51.092;6.828;2023-02-17T06:13:33;11.40;99.90
20839;DHT22;10580;51.092;6.828;2023-02-17T06:15:59;11.40;99.90
20839;DHT22;10580;51.092;6.828;2023-02-17T06:18:24;11.40;99.90
20839;DHT22;10580;51.092;6.828;2023-02-17T06:20:50;11.40;99.90
20839;DHT22;10580;51.092;6.828;2023-02-17T06:23:16;11.40;99.90
20839;DHT22;10580;51.092;6.828;2023-02-17T06:25:42;11.40;99.90
20839;DHT22;10580;51.092;6.828;2023-02-17T06:28:07;11.40;99.90
20839;DHT22;10580;51.092;6.828;2023-02-17T06:30:33;11.50;99.90
20839;DHT22;10580;51.092;6.828;2023-02-17T06:32:58;11.40;99.90
20839;DHT22;10580;51.092;6.828;2023-02-17T06:35:27;11.50;99.90
20839;DHT22;10580;51.092;6.828;2023-02-17T06:37:53;11.40;99.90
20839;DHT22;10580;51.092;6.828;2023-02-17T06:40:18;11.40;99.90
20839;DHT22;10580;51.092;6.828;2023-02-17T06:42:44;11.50;99.90
20839;DHT22;10580;51.092;6.828;2023-02-17T06:45:10;11.50;99.90
20839;DHT22;10580;51.092;6.828;2023-02-17T06:47:35;11.50;99.90
20839;DHT22;10580;51.092;6.828;2023-02-17T06:50:01;11.50;99.90
20839;DHT22;10580;51.092;6.828;2023-02-17T06:52:27;11.50;99.90
20839;DHT22;10580;51.092;6.828;2023-02-17T06:54:52;11.50;99.90
20839;DHT22;10580;51.092;6.828;2023-02-17T06:57:18;11.50;99.90
20839;DHT22;10580;51.092;6.828;2023-02-17T06:59:44;11.60;99.90
20839;DHT22;10580;51.092;6.828;2023-02-17T07:02:10;11.50;99.90
20839;DHT22;10580;51.092;6.828;2023-02-17T07:04:37;11.50;99.90
20839;DHT22;10580;51.092;6.828;2023-02-17T07:07:03;11.60;99.90
20839;DHT22;10580;51.092;6.828;2023-02-17T07:09:29;11.50;99.90
20839;DHT22;10580;51.092;6.828;2023-02-17T07:11:54;11.40;99.90
20839;DHT22;10580;51.092;6.828;2023-02-17T07:14:22;11.30;99.90
20839;DHT22;10580;51.092;6.828;2023-02-17T07:16:47;11.30;99.90
20839;DHT22;10580;51.092;6.828;2023-02-17T07:19:13;11.30;99.90
20839;DHT22;10580;51.092;6.828;2023-02-17T07:21:38;11.30;99.90
20839;DHT22;10580;51.092;6.828;2023-02-17T07:24:04;11.30;99.90
20839;DHT22;10580;51.092;6.828;2023-02-17T07:26:30;11.40;99.90
20839;DHT22;10580;51.092;6.828;2023-02-17T07:28:55;11.40;99.90
20839;DHT22;10580;51.092;6.828;2023-02-17T07:31:21;11.40;99.90
20839;DHT22;10580;51.092;6.828;2023-02-17T07:33:47;11.50;99.90
20839;DHT22;10580;51.092;6.828;2023-02-17T07:36:15;11.50;99.90
20839;DHT22;10580;51.092;6.828;2023-02-17T07:38:41;11.60;99.90
20839;DHT22;10580;51.092;6.828;2023-02-17T07:41:12;11.60;99.90
20839;DHT22;10580;51.092;6.828;2023-02-17T07:43:38;11.60;99.90
20839;DHT22;10580;51.092;6.828;2023-02-17T07:46:05;11.70;99.90
20839;DHT22;10580;51.092;6.828;2023-02-17T07:48:32;11.70;99.90
20839;DHT22;10580;51.092;6.828;2023-02-17T07:51:06;11.70;99.90
20839;DHT22;10580;51.092;6.828;2023-02-17T07:53:33;11.70;99.90
20839;DHT22;10580;51.092;6.828;2023-02-17T07:56:02;11.70;99.90
20839;DHT22;10580;51.092;6.828;2023-02-17T07:58:31;11.70;99.90
20839;DHT22;10580;51.092;6.828;2023-02-17T08:00:57;11.80;99.90
20839;DHT22;10580;51.092;6.828;2023-02-17T08:03:23;11.80;99.90
20839;DHT22;10580;51.092;6.828;2023-02-17T08:05:48;11.80;99.90
20839;DHT22;10580;51.092;6.828;2023-02-17T08:08:16;11.80;99.90
20839;DHT22;10580;51.092;6.828;2023-02-17T08:11:00;11.80;99.90
20839;DHT22;10580;51.092;6.828;2023-02-17T08:13:44;11.80;99.90
20839;DHT22;10580;51.092;6.828;2023-02-17T08:16:10;11.90;99.90
20839;DHT22;10580;51.092;6.828;2023-02-17T08:18:36;11.90;99.90
20839;DHT22;10580;51.092;6.828;2023-02-17T08:21:01;11.90;99.90
20839;DHT22;10580;51.092;6.828;2023-02-17T08:23:33;11.90;99.90
20839;DHT22;10580;51.092;6.828;2023-02-17T08:25:59;12.00;99.90
20839;DHT22;10580;51.092;6.828;2023-02-17T08:28:25;12.00;99.90
20839;DHT22;10580;51.092;6.828;2023-02-17T08:30:50;12.10;99.90
20839;DHT22;10580;51.092;6.828;2023-02-17T08:33:16;12.10;99.90
20839;DHT22;10580;51.092;6.828;2023-02-17T08:35:44;12.10;99.90
20839;DHT22;10580;51.092;6.828;2023-02-17T08:38:10;12.20;99.90
20839;DHT22;10580;51.092;6.828;2023-02-17T08:40:35;12.20;99.90
20839;DHT22;10580;51.092;6.828;2023-02-17T08:43:01;12.30;99.90
20839;DHT22;10580;51.092;6.828;2023-02-17T08:45:29;12.30;99.90
20839;DHT22;10580;51.092;6.828;2023-02-17T08:47:55;12.30;99.90
20839;DHT22;10580;51.092;6.828;2023-02-17T08:50:20;12.40;99.90
20839;DHT22;10580;51.092;6.828;2023-02-17T08:52:48;12.40;99.90
20839;DHT22;10580;51.092;6.828;2023-02-17T08:55:21;12.40;99.90
20839;DHT22;10580;51.092;6.828;2023-02-17T08:57:48;12.40;99.90
20839;DHT22;10580;51.092;6.828;2023-02-17T09:00:14;12.50;99.90
20839;DHT22;10580;51.092;6.828;2023-02-17T09:02:43;12.50;99.90
20839;DHT22;10580;51.092;6.828;2023-02-17T09:05:11;12.60;99.90
20839;DHT22;10580;51.092;6.828;2023-02-17T09:07:37;12.70;99.90
20839;DHT22;10580;51.092;6.828;2023-02-17T09:10:07;12.80;99.90
20839;DHT22;10580;51.092;6.828;2023-02-17T09:12:33;12.90;99.90
20839;DHT22;10580;51.092;6.828;2023-02-17T09:14:59;13.10;99.90
20839;DHT22;10580;51.092;6.828;2023-02-17T09:17:25;13.20;99.90
20839;DHT22;10580;51.092;6.828;2023-02-17T09:19:50;13.20;99.90
20839;DHT22;10580;51.092;6.828;2023-02-17T09:22:16;13.20;99.90
20839;DHT22;10580;51.092;6.828;2023-02-17T09:24:45;13.30;99.90
20839;DHT22;10580;51.092;6.828;2023-02-17T09:27:36;13.30;99.90
20839;DHT22;10580;51.092;6.828;2023-02-17T09:30:15;13.30;99.90
20839;DHT22;10580;51.092;6.828;2023-02-17T09:32:42;13.30;99.90
20839;DHT22;10580;51.092;6.828;2023-02-17T09:35:12;13.30;99.90
20839;DHT22;10580;51.092;6.828;2023-02-17T09:37:38;13.30;99.90
20839;DHT22;10580;51.092;6.828;2023-02-17T09:40:05;13.30;99.90
20839;DHT22;10580;51.092;6.828;2023-02-17T09:42:37;13.30;99.90
20839;DHT22;10580;51.092;6.828;2023-02-17T09:45:09;13.40;99.90
20839;DHT22;10580;51.092;6.828;2023-02-17T09:47:52;13.50;99.90
20839;DHT22;10580;51.092;6.828;2023-02-17T09:50:44;13.60;99.90
20839;DHT22;10580;51.092;6.828;2023-02-17T09:56:55;13.90;99.90
20839;DHT22;10580;51.092;6.828;2023-02-17T09:59:36;14.10;99.90
20839;DHT22;10580;51.092;6.828;2023-02-17T10:02:32;14.00;99.90
20839;DHT22;10580;51.092;6.828;2023-02-17T10:05:04;14.10;99.90
20839;DHT22;10580;51.092;6.828;2023-02-17T10:13:52;14.30;99.90
20839;DHT22;10580;51.092;6.828;2023-02-17T10:16:47;14.40;99.90
20839;DHT22;10580;51.092;6.828;2023-02-17T10:19:20;14.30;97.20
20839;DHT22;10580;51.092;6.828;2023-02-17T10:22:16;14.30;93.90
20839;DHT22;10580;51.092;6.828;2023-02-17T10:24:45;14.30;98.20
20839;DHT22;10580;51.092;6.828;2023-02-17T10:33:19;14.90;70.10
20839;DHT22;10580;51.092;6.828;2023-02-17T10:41:51;15.40;19.70
20839;DHT22;10580;51.092;6.828;2023-02-17T10:47:16;15.40;20.40
20839;DHT22;10580;51.092;6.828;2023-02-17T10:52:50;15.10;37.90
20839;DHT22;10580;51.092;6.828;2023-02-17T11:00:46;14.80;55.90
20839;DHT22;10580;51.092;6.828;2023-02-17T11:03:23;14.70;76.90
20839;DHT22;10580;51.092;6.828;2023-02-17T11:11:58;14.70;72.90
20839;DHT22;10580;51.092;6.828;2023-02-17T11:14:32;14.70;79.70
20839;DHT22;10580;51.092;6.828;2023-02-17T11:17:34;14.70;86.10
20839;DHT22;10580;51.092;6.828;2023-02-17T11:20:24;14.70;87.30
20839;DHT22;10580;51.092;6.828;2023-02-17T11:25:34;14.70;90.40
20839;DHT22;10580;51.092;6.828;2023-02-17T11:28:03;14.80;80.50
20839;DHT22;10580;51.092;6.828;2023-02-17T11:30:32;15.00;75.10
20839;DHT22;10580;51.092;6.828;2023-02-17T11:32:58;15.00;63.30
20839;DHT22;10580;51.092;6.828;2023-02-17T11:38:14;15.10;56.80
20839;DHT22;10580;51.092;6.828;2023-02-17T11:40:40;15.20;53.60
20839;DHT22;10580;51.092;6.828;2023-02-17T11:43:16;15.20;35.00
20839;DHT22;10580;51.092;6.828;2023-02-17T11:54:22;15.50;17.60
20839;DHT22;10580;51.092;6.828;2023-02-17T12:00:04;15.60;1.00
20839;DHT22;10580;51.092;6.828;2023-02-17T12:16:17;15.20;19.00
20839;DHT22;10580;51.092;6.828;2023-02-17T12:19:27;15.10;23.50
20839;DHT22;10580;51.092;6.828;2023-02-17T12:22:13;15.00;29.80
20839;DHT22;10580;51.092;6.828;2023-02-17T12:25:18;15.00;40.30
20839;DHT22;10580;51.092;6.828;2023-02-17T12:31:27;15.00;38.10
20839;DHT22;10580;51.092;6.828;2023-02-17T12:40:04;15.10;32.70
20839;DHT22;10580;51.092;6.828;2023-02-17T12:42:37;15.20;29.90
20839;DHT22;10580;51.092;6.828;2023-02-17T12:45:16;15.30;22.50
20839;DHT22;10580;51.092;6.828;2023-02-17T12:48:23;15.50;19.00
20839;DHT22;10580;51.092;6.828;2023-02-17T12:59:43;15.60;1.00
20839;DHT22;10580;51.092;6.828;2023-02-17T13:02:12;15.40;1.00
20839;DHT22;10580;51.092;6.828;2023-02-17T13:04:40;15.40;1.00
20839;DHT22;10580;51.092;6.828;2023-02-17T13:09:54;15.40;2.50
20839;DHT22;10580;51.092;6.828;2023-02-17T13:15:00;15.50;7.00
20839;DHT22;10580;51.092;6.828;2023-02-17T13:23:12;15.60;15.80
20839;DHT22;10580;51.092;6.828;2023-02-17T13:25:59;15.50;13.60
20839;DHT22;10580;51.092;6.828;2023-02-17T13:28:37;15.30;13.90
20839;DHT22;10580;51.092;6.828;2023-02-17T13:31:13;15.50;19.30
20839;DHT22;10580;51.092;6.828;2023-02-17T13:33:43;15.60;16.90
20839;DHT22;10580;51.092;6.828;2023-02-17T13:36:34;15.60;12.70
20839;DHT22;10580;51.092;6.828;2023-02-17T13:41:47;15.40;5.90
20839;DHT22;10580;51.092;6.828;2023-02-17T13:44:32;15.30;3.60
20839;DHT22;10580;51.092;6.828;2023-02-17T13:47:05;15.20;9.00
20839;DHT22;10580;51.092;6.828;2023-02-17T13:49:34;15.20;11.80
20839;DHT22;10580;51.092;6.828;2023-02-17T13:52:30;15.20;12.40
20839;DHT22;10580;51.092;6.828;2023-02-17T13:55:01;15.10;20.60
20839;DHT22;10580;51.092;6.828;2023-02-17T13:57:35;15.10;16.90
20839;DHT22;10580;51.092;6.828;2023-02-17T14:03:24;15.00;18.50
20839;DHT22;10580;51.092;6.828;2023-02-17T14:05:52;14.90;23.60
20839;DHT22;10580;51.092;6.828;2023-02-17T14:08:28;14.90;20.80
20839;DHT22;10580;51.092;6.828;2023-02-17T14:10:54;14.90;24.30
20839;DHT22;10580;51.092;6.828;2023-02-17T14:13:23;14.80;22.70
20839;DHT22;10580;51.092;6.828;2023-02-17T14:15:59;14.80;20.60
20839;DHT22;10580;51.092;6.828;2023-02-17T14:18:34;14.80;24.00
20839;DHT22;10580;51.092;6.828;2023-02-17T14:21:07;14.80;28.10
20839;DHT22;10580;51.092;6.828;2023-02-17T14:23:50;14.80;33.00
20839;DHT22;10580;51.092;6.828;2023-02-17T14:26:49;14.80;28.00
20839;DHT22;10580;51.092;6.828;2023-02-17T14:29:23;14.80;33.30
20839;DHT22;10580;51.092;6.828;2023-02-17T14:31:52;14.80;39.10
20839;DHT22;10580;51.092;6.828;2023-02-17T14:34:30;14.80;45.70
20839;DHT22;10580;51.092;6.828;2023-02-17T14:37:15;14.80;44.10
20839;DHT22;10580;51.092;6.828;2023-02-17T14:39:59;14.80;41.30
20839;DHT22;10580;51.092;6.828;2023-02-17T14:42:28;14.80;40.10
20839;DHT22;10580;51.092;6.828;2023-02-17T14:44:53;14.80;33.90
20839;DHT22;10580;51.092;6.828;2023-02-17T14:47:22;14.70;23.80
20839;DHT22;10580;51.092;6.828;2023-02-17T14:49:50;14.70;1.00
20839;DHT22;10580;51.092;6.828;2023-02-17T14:52:22;14.60;1.00
20839;DHT22;10580;51.092;6.828;2023-02-17T14:54:52;14.60;1.00
20839;DHT22;10580;51.092;6.828;2023-02-17T14:57:22;14.60;1.00
20839;DHT22;10580;51.092;6.828;2023-02-17T14:59:58;14.60;1.00
20839;DHT22;10580;51.092;6.828;2023-02-17T15:02:24;14.50;1.00
20839;DHT22;10580;51.092;6.828;2023-02-17T15:04:49;14.40;1.00
20839;DHT22;10580;51.092;6.828;2023-02-17T15:07:16;14.40;1.00
20839;DHT22;10580;51.092;6.828;2023-02-17T15:09:44;14.40;1.00
20839;DHT22;10580;51.092;6.828;2023-02-17T15:12:14;14.30;1.00
20839;DHT22;10580;51.092;6.828;2023-02-17T15:14:48;14.30;1.00
20839;DHT22;10580;51.092;6.828;2023-02-17T15:17:14;14.20;1.00
20839;DHT22;10580;51.092;6.828;2023-02-17T15:19:40;14.10;1.00
20839;DHT22;10580;51.092;6.828;2023-02-17T15:22:11;14.10;1.00
20839;DHT22;10580;51.092;6.828;2023-02-17T15:24:42;14.10;1.00
20839;DHT22;10580;51.092;6.828;2023-02-17T15:27:14;14.00;4.30
20839;DHT22;10580;51.092;6.828;2023-02-17T15:29:45;14.00;4.90
20839;DHT22;10580;51.092;6.828;2023-02-17T15:32:17;14.00;9.50
20839;DHT22;10580;51.092;6.828;2023-02-17T15:34:51;13.90;14.30
20839;DHT22;10580;51.092;6.828;2023-02-17T15:37:23;13.90;19.90
20839;DHT22;10580;51.092;6.828;2023-02-17T15:40:21;13.90;20.50
20839;DHT22;10580;51.092;6.828;2023-02-17T15:42:51;13.80;23.90
20839;DHT22;10580;51.092;6.828;2023-02-17T15:45:28;13.80;28.50
20839;DHT22;10580;51.092;6.828;2023-02-17T15:48:21;13.80;31.50
20839;DHT22;10580;51.092;6.828;2023-02-17T15:53:48;13.70;38.90
20839;DHT22;10580;51.092;6.828;2023-02-17T15:56:17;13.60;46.10
20839;DHT22;10580;51.092;6.828;2023-02-17T15:58:57;13.50;59.60
20839;DHT22;10580;51.092;6.828;2023-02-17T16:01:30;13.50;71.10
20839;DHT22;10580;51.092;6.828;2023-02-17T16:03:57;13.40;94.60
20839;DHT22;10580;51.092;6.828;2023-02-17T16:06:29;13.30;99.90
20839;DHT22;10580;51.092;6.828;2023-02-17T16:08:57;13.20;99.90
20839;DHT22;10580;51.092;6.828;2023-02-17T16:11:36;13.10;99.90
20839;DHT22;10580;51.092;6.828;2023-02-17T16:14:05;13.00;99.90
20839;DHT22;10580;51.092;6.828;2023-02-17T16:16:34;13.00;99.90
20839;DHT22;10580;51.092;6.828;2023-02-17T16:19:05;13.00;99.90
20839;DHT22;10580;51.092;6.828;2023-02-17T16:21:33;12.90;99.90
20839;DHT22;10580;51.092;6.828;2023-02-17T16:24:12;12.90;99.90
20839;DHT22;10580;51.092;6.828;2023-02-17T16:26:43;12.80;99.90
20839;DHT22;10580;51.092;6.828;2023-02-17T16:29:15;12.70;99.90
20839;DHT22;10580;51.092;6.828;2023-02-17T16:31:47;12.70;99.90
20839;DHT22;10580;51.092;6.828;2023-02-17T16:34:21;12.60;99.90
20839;DHT22;10580;51.092;6.828;2023-02-17T16:36:49;12.60;99.90
20839;DHT22;10580;51.092;6.828;2023-02-17T16:39:17;12.50;99.90
20839;DHT22;10580;51.092;6.828;2023-02-17T16:41:45;12.50;99.90
20839;DHT22;10580;51.092;6.828;2023-02-17T16:44:27;12.50;99.90
20839;DHT22;10580;51.092;6.828;2023-02-17T16:46:54;12.50;99.90
20839;DHT22;10580;51.092;6.828;2023-02-17T16:49:39;12.40;99.90
20839;DHT22;10580;51.092;6.828;2023-02-17T16:52:36;12.40;99.90
20839;DHT22;10580;51.092;6.828;2023-02-17T16:55:03;12.30;99.90
20839;DHT22;10580;51.092;6.828;2023-02-17T16:57:31;12.30;99.90
20839;DHT22;10580;51.092;6.828;2023-02-17T17:00:00;12.30;99.90
20839;DHT22;10580;51.092;6.828;2023-02-17T17:02:29;12.20;99.90
20839;DHT22;10580;51.092;6.828;2023-02-17T17:04:54;12.20;99.90
20839;DHT22;10580;51.092;6.828;2023-02-17T17:07:23;12.20;99.90
20839;DHT22;10580;51.092;6.828;2023-02-17T17:10:04;12.20;99.90
20839;DHT22;10580;51.092;6.828;2023-02-17T17:12:30;12.20;99.90
20839;DHT22;10580;51.092;6.828;2023-02-17T17:15:02;12.20;99.90
20839;DHT22;10580;51.092;6.828;2023-02-17T17:17:37;12.30;99.90
20839;DHT22;10580;51.092;6.828;2023-02-17T17:20:04;12.20;99.90
20839;DHT22;10580;51.092;6.828;2023-02-17T17:22:33;12.20;99.90
20839;DHT22;10580;51.092;6.828;2023-02-17T17:25:04;12.20;99.90
20839;DHT22;10580;51.092;6.828;2023-02-17T17:27:34;12.20;99.90
20839;DHT22;10580;51.092;6.828;2023-02-17T17:30:15;12.20;99.90
20839;DHT22;10580;51.092;6.828;2023-02-17T17:32:49;12.20;99.90
20839;DHT22;10580;51.092;6.828;2023-02-17T17:35:18;12.20;99.90
20839;DHT22;10580;51.092;6.828;2023-02-17T17:37:47;12.20;99.90
20839;DHT22;10580;51.092;6.828;2023-02-17T17:40:21;12.20;99.90
20839;DHT22;10580;51.092;6.828;2023-02-17T17:42:47;12.20;99.90
20839;DHT22;10580;51.092;6.828;2023-02-17T17:45:15;12.20;99.90
20839;DHT22;10580;51.092;6.828;2023-02-17T17:47:44;12.20;99.90
20839;DHT22;10580;51.092;6.828;2023-02-17T17:50:20;12.20;99.90
20839;DHT22;10580;51.092;6.828;2023-02-17T17:52:49;12.30;99.90
20839;DHT22;10580;51.092;6.828;2023-02-17T17:55:18;12.20;99.90
20839;DHT22;10580;51.092;6.828;2023-02-17T17:57:44;12.30;99.90
20839;DHT22;10580;51.092;6.828;2023-02-17T18:00:20;12.30;99.90